Time;durP1;ratioP1;P1;durP2;ratioP2;P2;SDS_P1;SDS_P2;PMS_P1;PMS_P2;Temp;Humidity;BMP_temperature;BMP_pressure;BME280_temperature;BME280_humidity;BME280_pressure;Samples;Min_cycle;Max_cycle;Signal;HPM_P1;HPM_P2
2022/08/20 00:00:00;;;;;;;1999.90;999.90;;;;;;;20.31;72.91;95250.00;5029163;28;20022;-75
2022/08/20 00:02:25;;;;;;;1999.90;999.90;;;;;;;20.26;73.36;95242.97;5011303;28;20041;-75
2022/08/20 00:04:51;;;;;;;1999.90;999.90;;;;;;;20.35;73.33;95269.75;5013834;28;20033;-73
2022/08/20 00:07:16;;;;;;;1999.90;999.90;;;;;;;20.67;71.67;95264.81;5010591;28;20538;-74
2022/08/20 00:09:42;;;;;;;1999.90;999.90;;;;;;;20.35;72.59;95262.41;5011707;28;20026;-73
2022/08/20 00:12:09;;;;;;;1999.90;999.90;;;;;;;20.62;72.05;95260.50;5012888;28;20026;-73
2022/08/20 00:14:35;;;;;;;1999.90;999.90;;;;;;;20.12;73.01;95267.88;5013398;28;20033;-74
2022/08/20 00:17:02;;;;;;;1999.90;999.90;;;;;;;20.23;73.46;95255.31;5010956;28;20030;-73
2022/08/20 00:19:28;;;;;;;1999.90;999.90;;;;;;;20.75;71.29;95255.69;5012052;28;20033;-75
2022/08/20 00:21:53;;;;;;;1999.90;999.90;;;;;;;20.59;71.85;95268.59;5010299;28;20030;-75
2022/08/20 00:24:19;;;;;;;1999.90;999.90;;;;;;;20.03;73.53;95259.22;5011912;28;20021;-75
2022/08/20 00:26:44;;;;;;;1999.90;999.90;;;;;;;19.85;74.54;95258.91;5008729;28;20030;-73
2022/08/20 00:29:09;;;;;;;1999.90;999.90;;;;;;;19.93;73.79;95243.63;5007598;28;20047;-74
2022/08/20 00:31:34;;;;;;;1999.90;999.90;;;;;;;20.00;73.53;95271.50;5010062;28;20025;-74
2022/08/20 00:34:00;;;;;;;1999.90;999.90;;;;;;;19.99;73.91;95253.75;5013089;28;20411;-74
2022/08/20 00:36:26;;;;;;;1999.90;999.90;;;;;;;19.68;74.90;95281.00;5011393;28;20604;-75
2022/08/20 00:38:51;;;;;;;1999.90;999.90;;;;;;;19.84;75.01;95278.97;5010176;28;20033;-74
2022/08/20 00:41:24;;;;;;;1999.90;999.90;;;;;;;19.83;75.26;95277.41;5011722;28;20062;-74
2022/08/20 00:44:04;;;;;;;1999.90;999.90;;;;;;;20.35;73.04;95264.34;5012812;28;20033;-75
2022/08/20 00:46:30;;;;;;;1999.90;999.90;;;;;;;20.58;72.44;95267.03;5011107;28;20026;-74
2022/08/20 00:48:56;;;;;;;1999.90;999.90;;;;;;;20.62;71.04;95236.19;5011292;28;20037;-75
2022/08/20 00:51:33;;;;;;;1999.90;999.90;;;;;;;20.53;72.19;95268.13;5011372;28;20026;-74
2022/08/20 00:54:08;;;;;;;1999.90;999.90;;;;;;;20.25;72.68;95266.50;5010794;28;20079;-75
2022/08/20 00:56:34;;;;;;;1999.90;999.90;;;;;;;19.39;75.93;95275.03;5010698;28;20605;-74
2022/08/20 00:59:01;;;;;;;1999.90;999.90;;;;;;;19.22;77.41;95248.50;5010176;28;20094;-75
2022/08/20 01:01:27;;;;;;;1999.90;999.90;;;;;;;19.60;76.24;95266.56;5010243;28;20029;-75
2022/08/20 01:03:57;;;;;;;1999.90;999.90;;;;;;;19.64;76.91;95275.53;5012215;28;20049;-74
2022/08/20 01:06:23;;;;;;;1999.90;999.90;;;;;;;19.72;77.12;95274.53;5012019;28;20454;-75
2022/08/20 01:08:49;;;;;;;1999.90;999.90;;;;;;;19.35;77.68;95262.63;5008115;28;20092;-74
2022/08/20 01:11:16;;;;;;;1999.90;999.90;;;;;;;19.47;77.26;95270.56;4998901;28;20475;-75
2022/08/20 01:13:44;;;;;;;1999.90;999.90;;;;;;;19.66;77.14;95284.06;4992700;28;20031;-73
2022/08/20 01:16:25;;;;;;;1999.90;999.90;;;;;;;19.07;79.83;95287.91;5002195;28;20418;-73
2022/08/20 01:18:51;;;;;;;1999.90;999.90;;;;;;;19.12;79.40;95262.56;5011412;28;20033;-75
2022/08/20 01:21:27;;;;;;;1999.90;999.90;;;;;;;19.53;78.64;95279.91;5011561;28;20418;-74
2022/08/20 01:24:06;;;;;;;1999.90;999.90;;;;;;;19.59;78.23;95283.91;5010703;28;20897;-74
2022/08/20 01:26:41;;;;;;;1999.90;999.90;;;;;;;19.20;79.99;95283.94;5011560;28;20382;-73
2022/08/20 01:29:15;;;;;;;1999.90;999.90;;;;;;;19.68;77.63;95292.56;5009568;28;20045;-73
2022/08/20 01:31:41;;;;;;;1999.90;999.90;;;;;;;19.72;77.28;95285.31;5009849;28;20029;-73
2022/08/20 01:34:11;;;;;;;1999.90;999.90;;;;;;;19.35;78.63;95255.31;5011119;28;20022;-74
2022/08/20 01:36:49;;;;;;;1999.90;999.90;;;;;;;19.57;78.62;95288.88;5012086;28;20017;-74
2022/08/20 01:39:20;;;;;;;1999.90;999.90;;;;;;;19.78;78.31;95301.22;5010655;28;20064;-73
2022/08/20 01:41:54;;;;;;;1999.90;999.90;;;;;;;19.45;80.32;95297.13;5010700;28;20494;-74
2022/08/20 01:44:20;;;;;;;1999.90;999.90;;;;;;;18.92;82.98;95291.44;5011355;28;20034;-74
2022/08/20 01:46:48;;;;;;;1999.90;999.90;;;;;;;19.35;80.73;95273.44;5008644;28;20053;-75
2022/08/20 01:49:22;;;;;;;1999.90;999.90;;;;;;;19.26;82.27;95297.91;5009842;28;20184;-74
2022/08/20 01:51:48;;;;;;;1999.90;999.90;;;;;;;19.60;80.17;95263.88;5009919;28;20076;-75
2022/08/20 01:54:14;;;;;;;1999.90;999.90;;;;;;;19.21;82.37;95298.97;5011349;28;20058;-73
2022/08/20 01:57:02;;;;;;;1999.90;999.90;;;;;;;18.94;83.52;95276.47;5010143;28;20030;-75
2022/08/20 01:59:28;;;;;;;1999.90;999.90;;;;;;;19.40;81.71;95275.84;5010251;28;20098;-74
2022/08/20 02:01:55;;;;;;;1999.90;999.90;;;;;;;19.81;79.97;95297.78;5009549;28;20026;-74
2022/08/20 02:04:20;;;;;;;1999.90;999.90;;;;;;;20.05;79.30;95304.75;5010296;28;20018;-74
2022/08/20 02:06:51;;;;;;;1999.90;999.90;;;;;;;19.87;79.67;95301.78;5009247;28;20395;-74
2022/08/20 02:09:17;;;;;;;1999.90;999.90;;;;;;;20.04;79.64;95298.59;5009996;28;20033;-74
2022/08/20 02:11:42;;;;;;;1999.90;999.90;;;;;;;19.95;78.58;95289.94;5009072;28;20572;-74
2022/08/20 02:14:10;;;;;;;1999.90;999.90;;;;;;;19.92;79.41;95313.03;5011044;28;20037;-74
2022/08/20 02:16:38;;;;;;;1999.90;999.90;;;;;;;19.53;81.24;95296.09;5008668;28;20033;-74
2022/08/20 02:19:11;;;;;;;1999.90;999.90;;;;;;;19.87;80.48;95307.16;5011345;28;20034;-74
2022/08/20 02:21:42;;;;;;;1999.90;999.90;;;;;;;19.48;81.08;95309.88;5008724;28;20709;-73
2022/08/20 02:24:07;;;;;;;1999.90;999.90;;;;;;;19.82;79.14;95283.94;5010127;28;20021;-74
2022/08/20 02:26:36;;;;;;;1999.90;999.90;;;;;;;19.72;79.51;95316.94;5009751;28;20105;-73
2022/08/20 02:29:05;;;;;;;1999.90;999.90;;;;;;;19.94;79.01;95299.97;5010423;28;20099;-74
2022/08/20 02:31:31;;;;;;;1999.90;999.90;;;;;;;20.16;79.00;95309.19;5006763;28;20033;-74
2022/08/20 02:33:56;;;;;;;1999.90;999.90;;;;;;;20.05;78.03;95300.13;5007833;28;20509;-74
2022/08/20 02:36:22;;;;;;;1999.90;999.90;;;;;;;19.85;79.21;95299.41;5006491;28;20054;-74
2022/08/20 02:38:47;;;;;;;1999.90;999.90;;;;;;;20.00;79.03;95303.13;5009033;28;20437;-74
2022/08/20 02:41:14;;;;;;;1999.90;999.90;;;;;;;19.97;79.14;95314.69;5008837;28;20034;-74
2022/08/20 02:43:39;;;;;;;1999.90;999.90;;;;;;;20.00;78.63;95308.53;5008862;28;20026;-74
2022/08/20 02:46:06;;;;;;;1999.90;999.90;;;;;;;19.71;80.00;95310.75;5008781;28;20386;-73
2022/08/20 02:48:32;;;;;;;1999.90;999.90;;;;;;;19.64;80.15;95291.72;5008801;28;20041;-73
2022/08/20 02:51:02;;;;;;;1999.90;999.90;;;;;;;19.99;79.42;95296.19;5008758;28;20112;-73
2022/08/20 02:53:31;;;;;;;1999.90;999.90;;;;;;;20.11;79.02;95314.13;4996605;28;20062;-74
2022/08/20 02:55:57;;;;;;;1999.90;999.90;;;;;;;20.14;78.78;95311.47;4989886;28;20041;-74
2022/08/20 02:58:22;;;;;;;1999.90;999.90;;;;;;;20.54;77.79;95301.34;4992051;28;20026;-74
2022/08/20 03:00:49;;;;;;;1999.90;999.90;;;;;;;20.17;78.04;95312.69;5006305;28;20018;-74
2022/08/20 03:03:15;;;;;;;1999.90;999.90;;;;;;;19.99;78.89;95310.47;5008254;28;20109;-74
2022/08/20 03:05:43;;;;;;;1999.90;999.90;;;;;;;19.17;81.78;95300.81;5010542;28;20025;-72
2022/08/20 03:08:10;;;;;;;1999.90;999.90;;;;;;;19.58;80.02;95293.13;5007460;28;20389;-73
2022/08/20 03:10:37;;;;;;;1999.90;999.90;;;;;;;20.03;79.48;95317.84;5009325;28;20091;-74
2022/08/20 03:13:04;;;;;;;1999.90;999.90;;;;;;;19.76;79.60;95309.69;5025489;22;20104;-70
2022/08/20 03:15:31;;;;;;;1999.90;999.90;;;;;;;18.43;80.63;95119.50;5007658;28;20372;-69
2022/08/20 03:17:57;;;;;;;1999.90;999.90;;;;;;;19.23;81.01;95283.19;5008719;28;20022;-69
2022/08/20 03:20:24;;;;;;;1999.90;999.90;;;;;;;18.50;80.17;95125.03;5009633;28;20026;-69
2022/08/20 03:22:51;;;;;;;1999.90;999.90;;;;;;;19.55;80.72;95293.84;5008245;28;20029;-67
2022/08/20 03:25:17;;;;;;;1999.90;999.90;;;;;;;19.45;78.84;95219.66;5009820;28;20022;-67
2022/08/20 03:27:43;;;;;;;1999.90;999.90;;;;;;;19.17;79.30;95238.00;5009127;28;20034;-67
2022/08/20 03:30:13;;;;;;;1999.90;999.90;;;;;;;20.06;78.48;95290.13;5008513;28;20033;-67
2022/08/20 03:32:38;;;;;;;1999.90;999.90;;;;;;;19.93;78.51;95303.03;5008311;28;20053;-67
2022/08/20 03:35:06;;;;;;;1999.90;999.90;;;;;;;19.45;79.25;95257.44;5009112;28;20040;-67
2022/08/20 03:37:33;;;;;;;1999.90;999.90;;;;;;;20.32;78.79;95330.69;5008275;28;20114;-67
2022/08/20 03:39:59;;;;;;;1999.90;999.90;;;;;;;19.62;77.66;95255.44;5008752;28;20051;-66
2022/08/20 03:42:25;;;;;;;1999.90;999.90;;;;;;;19.17;79.48;95229.94;5009316;28;20050;-66
2022/08/20 03:44:52;;;;;;;1999.90;999.90;;;;;;;20.16;78.00;95327.31;5007871;28;20061;-67
2022/08/20 03:47:18;;;;;;;1999.90;999.90;;;;;;;18.99;77.82;95115.56;4998915;28;20030;-69
2022/08/20 03:49:43;;;;;;;1999.90;999.90;;;;;;;19.98;77.68;95283.81;4994522;28;20092;-67
2022/08/20 03:52:09;;;;;;;1999.90;999.90;;;;;;;18.98;77.58;95157.16;5009318;28;20030;-68
2022/08/20 03:54:34;;;;;;;1999.90;999.90;;;;;;;19.74;80.16;95350.50;5008220;28;20084;-67
2022/08/20 03:57:01;;;;;;;1999.90;999.90;;;;;;;20.01;78.83;95334.38;5009738;28;20026;-68
2022/08/20 03:59:31;;;;;;;1999.90;999.90;;;;;;;19.92;79.46;95323.06;5008319;28;20057;-67
2022/08/20 04:01:58;;;;;;;1999.90;999.90;;;;;;;19.87;77.46;95334.16;5023711;28;20030;-67
2022/08/20 04:04:24;;;;;;;1999.90;999.90;;;;;;;19.46;77.24;95161.09;5007772;28;20065;-67
2022/08/20 04:06:49;;;;;;;1999.90;999.90;;;;;;;19.43;77.99;95248.13;5009115;28;20554;-67
2022/08/20 04:09:15;;;;;;;1999.90;999.90;;;;;;;19.49;78.18;95268.28;5007874;28;20434;-67
2022/08/20 04:11:41;;;;;;;1999.90;999.90;;;;;;;19.48;78.15;95223.56;5009362;28;20026;-67
2022/08/20 04:14:07;;;;;;;1999.90;999.90;;;;;;;18.68;77.41;95077.72;5008390;28;20026;-69
2022/08/20 04:16:32;;;;;;;1999.90;999.90;;;;;;;19.71;77.80;95313.44;5007146;28;20483;-67
2022/08/20 04:18:58;;;;;;;1999.90;999.90;;;;;;;20.25;77.46;95317.84;5005820;28;20120;-67
2022/08/20 04:21:23;;;;;;;1999.90;999.90;;;;;;;18.71;77.10;95076.19;5001921;28;20105;-67
2022/08/20 04:23:49;;;;;;;1999.90;999.90;;;;;;;20.21;77.69;95333.19;4995560;28;20026;-67
2022/08/20 04:26:15;;;;;;;1999.90;999.90;;;;;;;19.77;77.84;95291.56;5009299;28;20058;-67
2022/08/20 04:28:40;;;;;;;1999.90;999.90;;;;;;;19.52;78.57;95340.41;5010865;28;20040;-67
2022/08/20 04:31:06;;;;;;;1999.90;999.90;;;;;;;18.25;79.24;95107.59;5010592;28;20029;-67
2022/08/20 04:33:31;;;;;;;1999.90;999.90;;;;;;;20.47;77.66;95358.72;5011214;28;20037;-67
2022/08/20 04:36:01;;;;;;;1999.90;999.90;;;;;;;19.85;78.61;95360.72;5012999;28;20033;-67
2022/08/20 04:38:28;;;;;;;1999.90;999.90;;;;;;;19.98;78.71;95357.50;5011736;28;20014;-67
2022/08/20 04:40:57;;;;;;;1999.90;999.90;;;;;;;19.81;78.45;95343.66;5012212;28;20068;-67
2022/08/20 04:43:36;;;;;;;1999.90;999.90;;;;;;;19.21;79.26;95296.28;5012350;28;20026;-67
2022/08/20 04:46:05;;;;;;;1999.90;999.90;;;;;;;19.44;79.02;95257.78;5011715;28;20068;-68
2022/08/20 04:48:31;;;;;;;1999.90;999.90;;;;;;;19.81;78.08;95309.38;5011552;28;20108;-67
2022/08/20 04:50:58;;;;;;;1999.90;999.90;;;;;;;20.19;78.35;95357.09;5009873;28;20052;-67
2022/08/20 04:53:25;;;;;;;1999.90;999.90;;;;;;;19.45;78.84;95289.81;5011469;28;20101;-68
2022/08/20 04:55:52;;;;;;;1999.90;999.90;;;;;;;19.93;79.45;95384.78;5011169;28;20029;-68
2022/08/20 04:58:27;;;;;;;1999.90;999.90;;;;;;;18.52;79.66;95148.91;5011366;28;20025;-68
2022/08/20 05:00:58;;;;;;;1999.90;999.90;;;;;;;19.39;79.83;95293.13;5010867;28;20034;-68
2022/08/20 05:03:25;;;;;;;1999.90;999.90;;;;;;;20.37;78.40;95368.22;5011926;28;20029;-67
2022/08/20 05:05:50;;;;;;;1999.90;999.90;;;;;;;19.55;78.73;95287.66;5011802;28;20036;-67
2022/08/20 05:08:17;;;;;;;1999.90;999.90;;;;;;;18.66;80.39;95255.06;5011542;28;20209;-67
2022/08/20 05:10:43;;;;;;;1999.90;999.90;;;;;;;19.36;78.92;95243.41;5010786;28;20073;-67
2022/08/20 05:13:09;;;;;;;1999.90;999.90;;;;;;;19.83;76.43;95339.50;5009372;28;20494;-67
2022/08/20 05:15:37;;;;;;;1999.90;999.90;;;;;;;20.65;76.72;95381.41;5025422;28;20037;-67
2022/08/20 05:18:04;;;;;;;1999.90;999.90;;;;;;;20.46;77.40;95379.56;5011479;28;20029;-68
2022/08/20 05:20:32;;;;;;;1999.90;999.90;;;;;;;19.80;78.01;95331.31;5010870;28;20375;-67
2022/08/20 05:22:58;;;;;;;1999.90;999.90;;;;;;;19.93;77.55;95335.41;5010167;28;20080;-68
2022/08/20 05:25:27;;;;;;;1999.90;999.90;;;;;;;20.51;77.05;95351.47;5011101;28;20030;-68
2022/08/20 05:27:59;;;;;;;1999.90;999.90;;;;;;;18.07;78.04;95093.78;5009542;28;20034;-68
2022/08/20 05:30:32;;;;;;;1999.90;999.90;;;;;;;19.57;79.09;95342.06;5011129;28;20589;-68
2022/08/20 05:32:59;;;;;;;1999.90;999.90;;;;;;;19.72;77.69;95336.59;5010314;28;20510;-68
2022/08/20 05:35:24;;;;;;;1999.90;999.90;;;;;;;20.08;76.89;95331.84;5011240;28;20034;-68
2022/08/20 05:37:50;;;;;;;1999.90;999.90;;;;;;;19.71;76.96;95272.19;5005287;28;20089;-67
2022/08/20 05:40:15;;;;;;;1999.90;999.90;;;;;;;19.84;75.88;95302.47;4999677;28;20467;-70
2022/08/20 05:42:41;;;;;;;1999.90;999.90;;;;;;;19.50;77.37;95304.94;5010996;28;20049;-68
2022/08/20 05:45:07;;;;;;;1999.90;999.90;;;;;;;19.82;77.64;95302.84;5010963;28;20024;-69
2022/08/20 05:47:36;;;;;;;1999.90;999.90;;;;;;;20.05;76.51;95304.75;5010115;28;20022;-70
2022/08/20 05:50:04;;;;;;;1999.90;999.90;;;;;;;19.53;78.35;95343.91;5010902;28;20067;-70
2022/08/20 05:52:29;;;;;;;1999.90;999.90;;;;;;;19.17;78.66;95262.28;5010453;28;20491;-70
2022/08/20 05:54:55;;;;;;;1999.90;999.90;;;;;;;20.02;77.61;95373.78;5010511;28;20105;-70
2022/08/20 05:57:21;;;;;;;1999.90;999.90;;;;;;;19.62;79.44;95393.06;5010516;28;20087;-71
2022/08/20 05:59:47;;;;;;;1999.90;999.90;;;;;;;19.75;79.07;95443.03;5010725;28;20041;-69
2022/08/20 06:05:04;;;;;;;1999.90;999.90;;;;;;;19.83;79.26;95385.38;4993314;28;20052;-70
2022/08/20 06:07:30;;;;;;;1999.90;999.90;;;;;;;20.04;77.33;95414.69;5009053;28;20109;-70
2022/08/20 06:09:55;;;;;;;1999.90;999.90;;;;;;;19.21;78.95;95352.13;5010231;28;20030;-70
2022/08/20 06:12:21;;;;;;;1999.90;999.90;;;;;;;19.52;80.16;95448.34;5010119;28;20104;-69
2022/08/20 06:14:46;;;;;;;1999.90;999.90;;;;;;;20.02;78.17;95387.28;5010476;28;20086;-70
2022/08/20 06:17:17;;;;;;;1999.90;999.90;;;;;;;20.09;78.14;95424.41;5010453;28;20037;-70
2022/08/20 06:19:44;;;;;;;1999.90;999.90;;;;;;;19.09;80.11;95373.81;5008538;28;20026;-70
2022/08/20 06:22:09;;;;;;;1999.90;999.90;;;;;;;19.49;78.44;95335.72;5009947;28;20092;-66
2022/08/20 06:24:35;;;;;;;1999.90;999.90;;;;;;;20.35;77.62;95402.13;5010053;28;20412;-69
2022/08/20 06:27:03;;;;;;;1999.90;999.90;;;;;;;20.50;76.41;95375.00;4998081;28;20038;-70
2022/08/20 06:29:32;;;;;;;1999.90;999.90;;;;;;;20.54;76.55;95431.03;5007333;28;20038;-70
2022/08/20 06:31:58;;;;;;;1999.90;999.90;;;;;;;19.21;78.00;95288.19;5009250;28;20108;-69
2022/08/20 06:34:27;;;;;;;1999.90;999.90;;;;;;;19.91;78.84;95429.47;5010556;28;20029;-68
2022/08/20 06:36:56;;;;;;;1999.90;999.90;;;;;;;19.82;77.56;95385.75;5010292;28;20022;-68
2022/08/20 06:39:22;;;;;;;1999.90;999.90;;;;;;;20.09;77.32;95333.38;5009951;28;20022;-68
2022/08/20 06:41:47;;;;;;;1999.90;999.90;;;;;;;20.18;75.47;95368.28;5009458;28;20087;-68
2022/08/20 06:44:13;;;;;;;1999.90;999.90;;;;;;;21.02;75.29;95405.94;5005768;28;20018;-70
2022/08/20 06:46:39;;;;;;;1999.90;999.90;;;;;;;21.58;73.52;95409.81;5009373;28;20478;-69
2022/08/20 06:49:06;;;;;;;1999.90;999.90;;;;;;;21.77;73.17;95379.88;5009614;28;20140;-70
2022/08/20 06:51:33;;;;;;;1999.90;999.90;;;;;;;22.12;72.31;95384.16;5008561;28;20386;-70
2022/08/20 06:53:58;;;;;;;1999.90;999.90;;;;;;;21.72;70.85;95437.06;5010200;28;20065;-70
2022/08/20 06:56:24;;;;;;;1999.90;999.90;;;;;;;21.46;73.18;95389.16;5008767;28;20065;-69
2022/08/20 06:58:49;;;;;;;1999.90;999.90;;;;;;;21.44;72.08;95432.03;5009633;28;20030;-65
2022/08/20 07:01:19;;;;;;;1999.90;999.90;;;;;;;21.00;73.05;95426.38;5007755;28;20104;-68
2022/08/20 07:03:46;;;;;;;1999.90;999.90;;;;;;;20.65;73.98;95430.06;5008841;28;20494;-66
2022/08/20 07:06:13;;;;;;;1999.90;999.90;;;;;;;19.67;73.32;95220.84;5008242;28;20021;-67
2022/08/20 07:08:39;;;;;;;1999.90;999.90;;;;;;;19.83;74.96;95326.00;5025032;28;20025;-70
2022/08/20 07:11:04;;;;;;;1999.90;999.90;;;;;;;21.07;73.14;95421.06;5006622;28;20033;-69
2022/08/20 07:13:30;;;;;;;1999.90;999.90;;;;;;;21.70;70.83;95436.66;5003069;28;20034;-68
2022/08/20 07:15:55;;;;;;;1999.90;999.90;;;;;;;20.49;70.95;95232.94;5024203;28;20060;-71
2022/08/20 07:18:21;;;;;;;1999.90;999.90;;;;;;;21.22;71.74;95481.56;4999490;28;20030;-70
2022/08/20 07:20:47;;;;;;;1999.90;999.90;;;;;;;20.13;72.17;95228.13;4993301;28;20030;-68
2022/08/20 07:23:12;;;;;;;1999.90;999.90;;;;;;;21.05;73.54;95444.22;5009697;28;20505;-67
2022/08/20 07:25:40;;;;;;;1999.90;999.90;;;;;;;20.93;73.20;95470.28;5009217;28;20048;-70
2022/08/20 07:28:12;;;;;;;1999.90;999.90;;;;;;;20.92;72.97;95443.63;5001875;28;20030;-67
2022/08/20 07:33:22;;;;;;;1999.90;999.90;;;;;;;20.88;72.85;95418.44;4998475;28;20113;-66
2022/08/20 07:35:48;;;;;;;1999.90;999.90;;;;;;;21.79;70.62;95458.03;5009635;28;20025;-66
2022/08/20 07:38:25;;;;;;;1999.90;999.90;;;;;;;22.46;69.09;95454.53;4995665;28;20030;-69
2022/08/20 07:40:57;;;;;;;1999.90;999.90;;;;;;;22.06;69.01;95456.03;5001424;28;20030;-68
2022/08/20 07:43:23;;;;;;;1999.90;999.90;;;;;;;21.54;69.49;95463.09;5000000;28;20160;-67
2022/08/20 07:45:59;;;;;;;1999.90;999.90;;;;;;;21.60;71.04;95467.06;5004717;28;20209;-67
2022/08/20 07:48:27;;;;;;;1999.90;999.90;;;;;;;21.47;70.61;95454.91;5018548;28;20057;-67
2022/08/20 07:50:57;;;;;;;1999.90;999.90;;;;;;;21.77;70.11;95474.63;4998186;28;20022;-67
2022/08/20 07:53:24;;;;;;;1999.90;999.90;;;;;;;21.71;70.14;95459.88;4999926;28;21669;-68
2022/08/20 07:55:49;;;;;;;1999.90;999.90;;;;;;;22.37;67.33;95446.72;5005852;28;20025;-70
2022/08/20 07:58:23;;;;;;;1999.90;999.90;;;;;;;21.56;70.12;95471.66;5020855;28;20030;-69
2022/08/20 08:00:50;;;;;;;1999.90;999.90;;;;;;;21.96;69.66;95472.94;4988864;28;20492;-68
2022/08/20 08:03:16;;;;;;;1999.90;999.90;;;;;;;22.25;67.50;95447.75;5003590;28;20026;-69
2022/08/20 08:05:46;;;;;;;1999.90;999.90;;;;;;;21.75;69.00;95478.84;5013784;28;20025;-68
2022/08/20 08:08:17;;;;;;;1999.90;999.90;;;;;;;21.58;66.19;95304.25;5000743;28;20054;-70
2022/08/20 08:10:45;;;;;;;1999.90;999.90;;;;;;;21.76;67.87;95416.22;4994015;28;20041;-69
2022/08/20 08:13:12;;;;;;;1999.90;999.90;;;;;;;22.44;66.19;95451.44;5020785;28;20038;-67
2022/08/20 08:15:44;;;;;;;1999.90;999.90;;;;;;;22.20;66.03;95429.09;5013357;28;20030;-68
2022/08/20 08:18:20;;;;;;;1999.90;999.90;;;;;;;23.11;64.72;95448.53;5012818;28;20116;-68
2022/08/20 08:20:46;;;;;;;1999.90;999.90;;;;;;;22.77;65.64;95475.75;4998615;28;20078;-69
2022/08/20 08:23:15;;;;;;;1999.90;999.90;;;;;;;22.56;65.64;95468.19;5027697;28;20125;-68
2022/08/20 08:25:44;;;;;;;1999.90;999.90;;;;;;;22.52;64.09;95406.94;5012794;28;20084;-67
2022/08/20 08:28:12;;;;;;;1999.90;999.90;;;;;;;22.61;63.47;95344.28;5012630;28;20037;-71
2022/08/20 08:30:39;;;;;;;1999.90;999.90;;;;;;;22.54;63.44;95429.84;5013082;28;20034;-70
2022/08/20 08:35:50;;;;;;;1999.90;999.90;;;;;;;21.38;67.60;95402.97;5012438;28;20096;-69
2022/08/20 08:38:16;;;;;;;1999.90;999.90;;;;;;;22.64;65.81;95463.63;5012289;28;20033;-68
2022/08/20 08:40:42;;;;;;;1999.90;999.90;;;;;;;22.61;65.25;95474.44;5012981;28;20089;-66
2022/08/20 08:43:11;;;;;;;1999.90;999.90;;;;;;;22.30;64.46;95466.38;5011666;28;20041;-68
2022/08/20 08:45:47;;;;;;;1999.90;999.90;;;;;;;22.14;66.24;95495.63;5012606;28;20025;-69
2022/08/20 08:48:15;;;;;;;1999.90;999.90;;;;;;;22.23;66.74;95503.47;5012188;28;20506;-67
2022/08/20 08:50:44;;;;;;;1999.90;999.90;;;;;;;21.02;67.48;95367.28;5012768;28;20138;-68
2022/08/20 08:53:17;;;;;;;1999.90;999.90;;;;;;;21.70;68.86;95504.34;5011561;28;20352;-68
2022/08/20 08:55:43;;;;;;;1999.90;999.90;;;;;;;21.59;69.56;95506.09;5011359;28;20030;-67
2022/08/20 08:58:09;;;;;;;1999.90;999.90;;;;;;;21.93;67.64;95468.25;5011921;28;20037;-69
2022/08/20 09:00:35;;;;;;;1999.90;999.90;;;;;;;21.87;66.49;95424.47;5012516;28;20497;-68
2022/08/20 09:03:11;;;;;;;1999.90;999.90;;;;;;;22.14;66.76;95473.94;5010952;28;20390;-70
2022/08/20 09:05:47;;;;;;;1999.90;999.90;;;;;;;22.35;65.22;95467.97;5009574;28;20025;-68
2022/08/20 09:08:18;;;;;;;1999.90;999.90;;;;;;;21.51;65.75;95356.38;5010409;28;20042;-68
2022/08/20 09:10:44;;;;;;;1999.90;999.90;;;;;;;22.33;64.51;95448.63;5012363;28;20096;-67
2022/08/20 09:13:10;;;;;;;1999.90;999.90;;;;;;;22.91;63.32;95499.53;5010233;28;20033;-66
2022/08/20 09:15:36;;;;;;;1999.90;999.90;;;;;;;21.84;64.81;95417.06;4997800;28;20038;-69
2022/08/20 09:18:01;;;;;;;1999.90;999.90;;;;;;;22.91;64.27;95506.91;4993665;28;20073;-70
2022/08/20 09:20:26;;;;;;;1999.90;999.90;;;;;;;23.40;61.64;95481.31;4993304;28;20092;-69
2022/08/20 09:22:52;;;;;;;1999.90;999.90;;;;;;;22.98;63.48;95510.47;5018771;28;20029;-68
2022/08/20 09:25:18;;;;;;;1999.90;999.90;;;;;;;22.19;66.05;95500.72;5012440;28;20463;-74
2022/08/20 09:27:44;;;;;;;1999.90;999.90;;;;;;;22.44;64.06;95473.88;5012447;28;20471;-68
2022/08/20 09:30:10;;;;;;;1999.90;999.90;;;;;;;21.69;65.39;95439.72;5004508;28;20034;-68
2022/08/20 09:32:36;;;;;;;1999.90;999.90;;;;;;;23.38;63.27;95494.47;4991491;28;20411;-70
2022/08/20 09:35:01;;;;;;;1999.90;999.90;;;;;;;22.45;62.87;95386.00;4997482;28;20025;-69
2022/08/20 09:37:30;;;;;;;1999.90;999.90;;;;;;;22.16;65.47;95463.53;5011577;28;20439;-68
2022/08/20 09:39:55;;;;;;;1999.90;999.90;;;;;;;23.40;62.77;95509.25;5011162;28;20105;-74
2022/08/20 09:42:24;;;;;;;1999.90;999.90;;;;;;;23.14;63.23;95512.91;5011213;28;20030;-78
2022/08/20 09:44:49;;;;;;;1999.90;999.90;;;;;;;22.93;61.75;95431.34;5008407;28;20033;-71
2022/08/20 09:47:16;;;;;;;1999.90;999.90;;;;;;;23.20;63.80;95503.28;5012273;28;20029;-70
2022/08/20 09:49:42;;;;;;;1999.90;999.90;;;;;;;23.03;62.99;95484.91;5012382;28;20049;-68
2022/08/20 09:52:12;;;;;;;1999.90;999.90;;;;;;;24.57;59.71;95495.47;5009599;28;20026;-69
2022/08/20 09:54:38;;;;;;;1999.90;999.90;;;;;;;25.34;57.76;95490.50;5011486;28;20493;-73
2022/08/20 09:57:06;;;;;;;1999.90;999.90;;;;;;;25.67;56.05;95475.63;5027472;28;20053;-71
2022/08/20 09:59:32;;;;;;;1999.90;999.90;;;;;;;26.37;55.17;95483.97;5008442;28;20145;-69
2022/08/20 10:01:58;;;;;;;1999.90;999.90;;;;;;;25.15;55.48;95471.84;5012103;28;20030;-77
2022/08/20 10:04:23;;;;;;;1999.90;999.90;;;;;;;25.14;56.23;95498.28;5011938;28;20383;-76
2022/08/20 10:06:49;;;;;;;1999.90;999.90;;;;;;;25.76;55.44;95466.31;5011023;28;20065;-76
2022/08/20 10:09:14;;;;;;;1999.90;999.90;;;;;;;25.58;54.75;95482.66;5010521;28;20467;-73
2022/08/20 10:11:40;;;;;;;1999.90;999.90;;;;;;;26.12;53.29;95473.19;5012039;28;20029;-68
2022/08/20 10:14:07;;;;;;;1999.90;999.90;;;;;;;25.15;54.37;95404.56;5008317;28;20029;-69
2022/08/20 10:16:33;;;;;;;1999.90;999.90;;;;;;;26.04;53.42;95477.09;5007424;28;20093;-67
2022/08/20 10:18:59;;;;;;;1999.90;999.90;;;;;;;25.87;53.40;95399.69;5010544;28;20030;-70
2022/08/20 10:21:24;;;;;;;1999.90;999.90;;;;;;;26.05;52.50;95429.63;5011482;28;20033;-72
2022/08/20 10:23:49;;;;;;;1999.90;999.90;;;;;;;26.40;52.45;95439.53;5025061;28;20453;-70
2022/08/20 10:26:16;;;;;;;1999.90;999.90;;;;;;;26.07;51.75;95459.19;5010777;28;20029;-69
2022/08/20 10:28:42;;;;;;;1999.90;999.90;;;;;;;24.85;55.57;95472.97;5026847;28;20433;-74
2022/08/20 10:31:09;;;;;;;1999.90;999.90;;;;;;;24.88;55.62;95468.69;5009743;28;20036;-75
2022/08/20 10:33:35;;;;;;;1999.90;999.90;;;;;;;25.44;55.90;95488.94;5010129;28;20538;-70
2022/08/20 10:36:14;;;;;;;1999.90;999.90;;;;;;;25.84;54.88;95463.16;5007017;28;20549;-74
2022/08/20 10:38:40;;;;;;;1999.90;999.90;;;;;;;25.90;54.40;95441.75;5001630;28;20037;-77
2022/08/20 10:41:05;;;;;;;1999.90;999.90;;;;;;;26.23;54.90;95475.09;4998133;28;20034;-70
2022/08/20 10:43:30;;;;;;;1999.90;999.90;;;;;;;26.30;53.72;95485.94;5009833;28;20459;-68
2022/08/20 10:45:56;;;;;;;1999.90;999.90;;;;;;;25.98;53.45;95431.59;5007469;28;20026;-67
2022/08/20 10:48:21;;;;;;;1999.90;999.90;;;;;;;26.07;53.14;95451.78;5008692;28;20693;-69
2022/08/20 10:50:48;;;;;;;1999.90;999.90;;;;;;;26.23;53.44;95464.97;4996492;28;20067;-68
2022/08/20 10:53:13;;;;;;;1999.90;999.90;;;;;;;26.43;52.85;95454.38;4998014;28;20026;-68
2022/08/20 10:55:39;;;;;;;1999.90;999.90;;;;;;;25.15;54.63;95480.78;5025812;28;20029;-69
2022/08/20 10:58:06;;;;;;;1999.90;999.90;;;;;;;26.15;53.47;95472.38;5008787;28;20502;-68
2022/08/20 11:00:31;;;;;;;1999.90;999.90;;;;;;;26.50;52.49;95446.13;5009983;28;20037;-68
2022/08/20 11:02:56;;;;;;;1999.90;999.90;;;;;;;27.01;51.33;95465.66;5025374;28;20113;-69